sensor_id;sensor_type;location;lat;lon;timestamp;temperature;humidity
1950;DHT22;975;48.760;9.152;2022-12-18T06:08:05;-4.80;99.90
1950;DHT22;975;48.760;9.152;2022-12-18T06:16:29;-8.00;99.90
1950;DHT22;975;48.760;9.152;2022-12-18T06:19:16;-8.30;99.90
1950;DHT22;975;48.760;9.152;2022-12-18T06:22:04;-8.40;99.90
1950;DHT22;975;48.760;9.152;2022-12-18T06:24:53;-8.40;99.90
1950;DHT22;975;48.760;9.152;2022-12-18T06:27:41;-8.40;99.90
1950;DHT22;975;48.760;9.152;2022-12-18T06:30:28;-8.30;99.90
1950;DHT22;975;48.760;9.152;2022-12-18T06:33:16;-8.20;99.90
1950;DHT22;975;48.760;9.152;2022-12-18T06:36:07;-8.30;99.90
1950;DHT22;975;48.760;9.152;2022-12-18T06:38:56;-8.30;99.90
1950;DHT22;975;48.760;9.152;2022-12-18T06:41:45;-8.40;99.90
1950;DHT22;975;48.760;9.152;2022-12-18T06:44:33;-8.50;99.90
1950;DHT22;975;48.760;9.152;2022-12-18T06:47:20;-8.70;99.90
1950;DHT22;975;48.760;9.152;2022-12-18T06:50:08;-8.70;99.90
1950;DHT22;975;48.760;9.152;2022-12-18T06:52:56;-8.80;99.90
1950;DHT22;975;48.760;9.152;2022-12-18T06:55:44;-9.00;99.90
1950;DHT22;975;48.760;9.152;2022-12-18T06:58:33;-9.00;99.90
1950;DHT22;975;48.760;9.152;2022-12-18T07:01:21;-8.80;99.90
1950;DHT22;975;48.760;9.152;2022-12-18T07:04:12;-8.90;99.90
1950;DHT22;975;48.760;9.152;2022-12-18T07:06:59;-8.90;99.90
1950;DHT22;975;48.760;9.152;2022-12-18T07:09:48;-8.80;99.90
1950;DHT22;975;48.760;9.152;2022-12-18T07:12:36;-8.80;99.90
1950;DHT22;975;48.760;9.152;2022-12-18T07:15:25;-8.90;99.90
1950;DHT22;975;48.760;9.152;2022-12-18T07:18:13;-8.80;99.90
1950;DHT22;975;48.760;9.152;2022-12-18T07:21:03;-8.70;99.90
1950;DHT22;975;48.760;9.152;2022-12-18T07:23:52;-8.60;99.90
1950;DHT22;975;48.760;9.152;2022-12-18T07:26:40;-8.60;99.90
1950;DHT22;975;48.760;9.152;2022-12-18T07:29:27;-8.50;99.90
1950;DHT22;975;48.760;9.152;2022-12-18T07:32:16;-8.50;99.90
1950;DHT22;975;48.760;9.152;2022-12-18T07:35:04;-8.50;99.90
1950;DHT22;975;48.760;9.152;2022-12-18T07:37:52;-8.60;99.90
1950;DHT22;975;48.760;9.152;2022-12-18T07:40:39;-8.50;99.90
1950;DHT22;975;48.760;9.152;2022-12-18T07:43:27;-8.60;99.90
1950;DHT22;975;48.760;9.152;2022-12-18T07:46:16;-8.50;99.90
1950;DHT22;975;48.760;9.152;2022-12-18T07:49:05;-8.40;99.90
1950;DHT22;975;48.760;9.152;2022-12-18T07:51:54;-8.40;99.90
1950;DHT22;975;48.760;9.152;2022-12-18T07:54:42;-8.30;99.90
1950;DHT22;975;48.760;9.152;2022-12-18T07:57:30;-8.30;99.90
1950;DHT22;975;48.760;9.152;2022-12-18T08:00:18;-8.30;99.90
1950;DHT22;975;48.760;9.152;2022-12-18T08:03:06;-8.30;99.90
1950;DHT22;975;48.760;9.152;2022-12-18T08:05:58;-8.30;99.80
1950;DHT22;975;48.760;9.152;2022-12-18T08:08:46;-8.10;99.90
1950;DHT22;975;48.760;9.152;2022-12-18T08:11:33;-8.10;99.90
1950;DHT22;975;48.760;9.152;2022-12-18T08:14:21;-8.00;99.90
1950;DHT22;975;48.760;9.152;2022-12-18T08:17:09;-8.00;99.70
1950;DHT22;975;48.760;9.152;2022-12-18T08:19:56;-7.70;99.60
1950;DHT22;975;48.760;9.152;2022-12-18T08:22:45;-7.70;99.20
1950;DHT22;975;48.760;9.152;2022-12-18T08:25:34;-7.70;99.20
1950;DHT22;975;48.760;9.152;2022-12-18T08:28:21;-7.50;99.20
1950;DHT22;975;48.760;9.152;2022-12-18T08:31:09;-7.40;99.30
1950;DHT22;975;48.760;9.152;2022-12-18T08:33:57;-7.30;99.20
1950;DHT22;975;48.760;9.152;2022-12-18T08:36:45;-7.30;98.60
1950;DHT22;975;48.760;9.152;2022-12-18T08:39:34;-7.30;98.80
1950;DHT22;975;48.760;9.152;2022-12-18T08:42:21;-7.20;98.80
1950;DHT22;975;48.760;9.152;2022-12-18T08:45:27;-7.30;98.70
1950;DHT22;975;48.760;9.152;2022-12-18T08:48:15;-7.30;99.10
1950;DHT22;975;48.760;9.152;2022-12-18T08:51:03;-7.20;99.00
1950;DHT22;975;48.760;9.152;2022-12-18T08:53:51;-7.30;99.30
1950;DHT22;975;48.760;9.152;2022-12-18T08:56:40;-7.30;99.90
1950;DHT22;975;48.760;9.152;2022-12-18T08:59:28;-7.20;99.90
1950;DHT22;975;48.760;9.152;2022-12-18T09:02:16;-7.20;99.90
1950;DHT22;975;48.760;9.152;2022-12-18T10:13:18;-7.10;99.90
